createdAt,value
2018-10-07T00:00:13.861Z,12.50
2018-10-07T00:02:42.347Z,12.50
2018-10-07T00:05:10.882Z,12.50
2018-10-07T00:07:39.432Z,12.40
2018-10-07T00:10:08.080Z,12.50
2018-10-07T00:12:36.572Z,12.30
2018-10-07T00:15:05.176Z,12.40
2018-10-07T00:17:33.710Z,12.40
2018-10-07T00:20:02.826Z,12.40
2018-10-07T00:22:31.350Z,12.20
2018-10-07T00:24:59.831Z,12.30
2018-10-07T00:27:28.330Z,12.30
2018-10-07T00:29:56.860Z,12.10
2018-10-07T00:32:25.388Z,12.30
2018-10-07T00:34:53.900Z,12.50
2018-10-07T00:37:22.452Z,12.50
2018-10-07T00:39:50.946Z,12.30
2018-10-07T00:42:19.473Z,12.30
2018-10-07T00:44:48.055Z,12.20
2018-10-07T00:47:16.553Z,12.10
2018-10-07T00:49:45.599Z,12.20
2018-10-07T00:52:14.116Z,12.20
2018-10-07T00:54:42.714Z,12.20
2018-10-07T00:57:11.287Z,12.20
2018-10-07T00:59:39.908Z,12.00
2018-10-07T01:02:08.540Z,12.00
2018-10-07T01:04:36.987Z,12.00
2018-10-07T01:07:05.506Z,12.00
2018-10-07T01:09:34.049Z,12.00
2018-10-07T01:12:02.600Z,11.90
2018-10-07T01:14:31.133Z,11.90
2018-10-07T01:16:59.712Z,12.00
2018-10-07T01:19:28.259Z,11.80
2018-10-07T01:21:56.813Z,11.80
2018-10-07T01:24:25.328Z,11.90
2018-10-07T01:26:53.872Z,11.90
2018-10-07T01:29:22.394Z,11.70
2018-10-07T01:31:50.897Z,11.70
2018-10-07T01:34:19.400Z,11.90
2018-10-07T01:36:47.920Z,12.00
2018-10-07T01:39:16.438Z,11.90
2018-10-07T01:41:44.909Z,11.80
2018-10-07T01:44:13.455Z,11.70
2018-10-07T01:46:41.964Z,11.70
2018-10-07T01:49:10.471Z,11.60
2018-10-07T01:51:39.009Z,11.80
2018-10-07T01:54:12.862Z,11.80
2018-10-07T01:56:41.362Z,11.80
2018-10-07T01:59:09.906Z,11.80
2018-10-07T02:01:38.438Z,11.80
2018-10-07T02:04:06.931Z,11.80
2018-10-07T02:06:35.446Z,11.40
2018-10-07T02:09:08.773Z,11.50
2018-10-07T02:11:37.300Z,11.40
2018-10-07T02:14:05.985Z,11.40
2018-10-07T02:16:34.516Z,11.60
2018-10-07T02:19:03.480Z,11.50
2018-10-07T02:21:32.386Z,11.40
2018-10-07T02:24:00.894Z,11.40
2018-10-07T02:26:29.444Z,11.50
2018-10-07T02:28:57.955Z,11.50
2018-10-07T02:31:26.503Z,11.50
2018-10-07T02:33:54.995Z,11.40
2018-10-07T02:36:23.578Z,11.40
2018-10-07T02:38:52.083Z,11.30
2018-10-07T02:41:21.235Z,11.30
2018-10-07T02:43:49.791Z,11.10
2018-10-07T02:46:18.299Z,11.00
2018-10-07T02:48:46.831Z,10.90
2018-10-07T02:51:15.405Z,11.00
2018-10-07T02:53:43.959Z,11.00
2018-10-07T02:56:12.493Z,11.20
2018-10-07T02:58:41.026Z,11.10
2018-10-07T03:01:09.564Z,11.10
2018-10-07T03:03:38.113Z,11.10
2018-10-07T03:06:06.820Z,11.10
2018-10-07T03:08:35.308Z,11.00
2018-10-07T03:11:03.907Z,10.80
2018-10-07T03:13:32.492Z,10.90
2018-10-07T03:16:01.055Z,11.00
2018-10-07T03:18:29.642Z,10.90
2018-10-07T03:20:58.179Z,10.80
2018-10-07T03:23:26.713Z,10.90
2018-10-07T03:25:55.252Z,10.80
2018-10-07T03:28:23.739Z,10.70
2018-10-07T03:30:52.337Z,10.80
2018-10-07T03:33:20.866Z,10.70
2018-10-07T03:35:49.391Z,10.80
2018-10-07T03:38:17.977Z,10.80
2018-10-07T03:40:46.493Z,10.70
2018-10-07T03:43:15.077Z,10.80
2018-10-07T03:45:43.694Z,10.90
2018-10-07T03:48:12.229Z,10.70
2018-10-07T03:50:40.687Z,10.80
2018-10-07T03:53:09.225Z,10.80
2018-10-07T03:55:37.750Z,10.50
2018-10-07T03:58:06.466Z,10.50
2018-10-07T04:00:35.052Z,10.70
2018-10-07T04:03:03.585Z,10.70
2018-10-07T04:05:32.105Z,10.60
2018-10-07T04:08:00.713Z,10.60
2018-10-07T04:10:29.296Z,10.40
2018-10-07T04:12:57.828Z,10.40
2018-10-07T04:15:26.375Z,10.60
2018-10-07T04:17:54.956Z,10.40
2018-10-07T04:20:23.485Z,10.20
2018-10-07T04:22:51.947Z,10.20
2018-10-07T04:25:20.470Z,10.20
2018-10-07T04:27:49.023Z,10.30
2018-10-07T04:30:17.573Z,10.40
2018-10-07T04:32:46.125Z,10.30
2018-10-07T04:35:14.656Z,10.20
2018-10-07T04:37:43.181Z,10.20
2018-10-07T04:40:11.680Z,10.40
2018-10-07T04:42:40.230Z,10.50
2018-10-07T04:45:12.448Z,10.40
2018-10-07T04:47:41.005Z,10.30
2018-10-07T04:50:09.599Z,10.20
2018-10-07T04:52:38.387Z,10.20
2018-10-07T04:55:06.941Z,10.00
2018-10-07T04:57:35.452Z,9.90
2018-10-07T05:00:07.233Z,9.80
2018-10-07T05:02:35.723Z,9.80
2018-10-07T05:05:04.326Z,9.80
2018-10-07T05:07:32.921Z,9.90
2018-10-07T05:10:12.760Z,10.00
2018-10-07T05:12:41.371Z,10.00
2018-10-07T05:15:09.991Z,9.80
2018-10-07T05:17:38.643Z,10.00
2018-10-07T05:20:07.257Z,10.00
2018-10-07T05:22:35.833Z,9.90
2018-10-07T05:25:04.458Z,9.80
2018-10-07T05:27:33.064Z,10.00
2018-10-07T05:30:01.658Z,10.00
2018-10-07T05:32:31.181Z,9.70
2018-10-07T05:34:59.698Z,9.70
2018-10-07T05:37:28.210Z,10.00
2018-10-07T05:39:56.755Z,10.00
2018-10-07T05:42:25.286Z,9.80
2018-10-07T05:44:54.107Z,9.70
2018-10-07T05:47:22.557Z,9.80
2018-10-07T05:49:51.110Z,9.70
2018-10-07T05:52:19.818Z,9.70
2018-10-07T05:54:49.401Z,9.90
2018-10-07T05:57:18.566Z,9.80
2018-10-07T05:59:48.203Z,9.80
2018-10-07T06:02:17.001Z,9.60
2018-10-07T06:04:50.612Z,9.70
2018-10-07T06:07:19.816Z,9.80
2018-10-07T06:09:49.265Z,9.90
2018-10-07T06:12:19.584Z,9.80
2018-10-07T06:14:59.325Z,9.90
2018-10-07T06:17:27.896Z,9.80
2018-10-07T06:19:56.703Z,9.80
2018-10-07T06:22:26.141Z,9.70
2018-10-07T06:24:54.849Z,9.90
2018-10-07T06:27:23.649Z,9.90
2018-10-07T06:29:52.538Z,10.00
2018-10-07T06:32:21.067Z,9.90
2018-10-07T06:34:49.675Z,9.80
2018-10-07T06:37:18.167Z,10.00
2018-10-07T06:39:46.751Z,10.00
2018-10-07T06:42:15.323Z,10.00
2018-10-07T06:44:43.901Z,10.10
2018-10-07T06:47:12.530Z,10.30
2018-10-07T06:49:41.121Z,10.30
2018-10-07T06:52:09.759Z,10.30
2018-10-07T06:54:38.285Z,10.30
2018-10-07T06:57:06.904Z,10.30
2018-10-07T06:59:35.454Z,10.40
2018-10-07T07:02:04.146Z,10.50
2018-10-07T07:04:32.726Z,10.50
2018-10-07T07:07:01.249Z,10.60
2018-10-07T07:09:29.877Z,10.70
2018-10-07T07:11:58.417Z,10.70
2018-10-07T07:14:26.988Z,10.80
2018-10-07T07:16:55.554Z,10.80
2018-10-07T07:19:24.101Z,10.90
2018-10-07T07:21:52.691Z,11.00
2018-10-07T07:24:21.369Z,11.10
2018-10-07T07:26:50.200Z,11.20
2018-10-07T07:29:18.904Z,11.30
2018-10-07T07:31:47.779Z,11.60
2018-10-07T07:34:16.289Z,11.80
2018-10-07T07:36:44.860Z,11.90
2018-10-07T07:39:13.445Z,12.10
2018-10-07T07:41:42.010Z,12.20
2018-10-07T07:44:10.541Z,12.20
2018-10-07T07:46:39.141Z,12.40
2018-10-07T07:49:07.792Z,12.50
2018-10-07T07:51:36.308Z,12.50
2018-10-07T07:54:07.802Z,12.70
2018-10-07T07:56:36.356Z,13.00
2018-10-07T07:59:04.929Z,13.20
2018-10-07T08:01:33.475Z,13.20
2018-10-07T08:04:01.990Z,13.60
2018-10-07T08:06:30.581Z,13.80
2018-10-07T08:08:59.161Z,13.70
2018-10-07T08:11:27.685Z,13.80
2018-10-07T08:13:56.258Z,14.10
2018-10-07T08:16:24.880Z,14.40
2018-10-07T08:18:53.442Z,14.60
2018-10-07T08:21:22.029Z,14.70
2018-10-07T08:23:50.652Z,14.50
2018-10-07T08:26:19.199Z,14.40
2018-10-07T08:28:47.822Z,14.70
2018-10-07T08:31:16.455Z,14.70
2018-10-07T08:33:45.132Z,14.50
2018-10-07T08:36:13.729Z,14.40
2018-10-07T08:38:42.258Z,14.30
2018-10-07T08:41:11.106Z,14.60
2018-10-07T08:43:39.665Z,14.80
2018-10-07T08:46:08.260Z,15.20
2018-10-07T08:48:36.780Z,15.60
2018-10-07T08:51:05.353Z,15.80
2018-10-07T08:53:34.130Z,15.90
2018-10-07T08:56:02.716Z,16.20
2018-10-07T08:58:31.303Z,16.60
2018-10-07T09:00:59.891Z,16.80
2018-10-07T09:03:28.814Z,16.90
2018-10-07T09:05:57.561Z,16.70
2018-10-07T09:08:26.265Z,17.10
2018-10-07T09:10:54.814Z,17.20
2018-10-07T09:13:23.368Z,17.70
2018-10-07T09:15:51.896Z,17.70
2018-10-07T09:18:20.425Z,18.50
2018-10-07T09:20:49.027Z,17.90
2018-10-07T09:23:17.521Z,17.60
2018-10-07T09:25:46.064Z,18.00
2018-10-07T09:28:14.732Z,17.60
2018-10-07T09:30:43.291Z,17.40
2018-10-07T09:33:11.855Z,17.50
2018-10-07T09:35:40.415Z,17.60
2018-10-07T09:38:08.933Z,17.60
2018-10-07T09:40:37.462Z,17.60
2018-10-07T09:43:06.111Z,17.70
2018-10-07T09:45:34.742Z,17.80
2018-10-07T09:48:03.360Z,17.60
2018-10-07T09:50:31.894Z,17.40
2018-10-07T09:53:00.837Z,17.20
2018-10-07T09:55:29.534Z,17.30
2018-10-07T09:57:58.035Z,17.50
2018-10-07T10:00:31.928Z,17.50
2018-10-07T10:03:00.612Z,17.60
2018-10-07T10:05:29.189Z,17.80
2018-10-07T10:07:57.783Z,17.90
2018-10-07T10:10:26.599Z,18.10
2018-10-07T10:12:55.275Z,18.10
2018-10-07T10:15:23.858Z,18.00
2018-10-07T10:17:58.865Z,18.00
2018-10-07T10:20:30.504Z,18.10
2018-10-07T10:23:07.406Z,18.20
2018-10-07T10:27:55.868Z,18.20
2018-10-07T10:30:31.349Z,18.10
2018-10-07T10:33:09.243Z,18.30
2018-10-07T10:36:45.175Z,18.50
2018-10-07T10:39:24.382Z,18.60
2018-10-07T10:42:04.371Z,18.70
2018-10-07T10:44:47.146Z,18.50
2018-10-07T10:47:25.935Z,18.60
2018-10-07T10:50:08.279Z,18.90
2018-10-07T10:52:45.408Z,18.80
2018-10-07T10:55:29.365Z,19.10
2018-10-07T10:58:07.307Z,18.80
2018-10-07T11:00:46.104Z,18.60
2018-10-07T11:03:22.199Z,18.40
2018-10-07T11:05:57.299Z,18.70
2018-10-07T11:08:34.164Z,18.80
2018-10-07T11:11:22.036Z,18.90
2018-10-07T11:13:57.764Z,19.00
2018-10-07T11:18:42.978Z,18.90
2018-10-07T11:22:21.598Z,18.80
2018-10-07T11:24:59.776Z,19.30
2018-10-07T11:27:38.945Z,19.50
2018-10-07T11:30:15.839Z,19.60
2018-10-07T11:32:55.554Z,19.80
2018-10-07T11:35:37.321Z,19.60
2018-10-07T11:38:14.679Z,19.50
2018-10-07T11:41:17.791Z,19.70
2018-10-07T11:43:53.870Z,19.80
2018-10-07T11:47:01.613Z,20.20
2018-10-07T11:49:36.257Z,20.30
2018-10-07T11:52:48.831Z,20.10
2018-10-07T11:55:17.376Z,20.10
2018-10-07T11:57:46.049Z,20.20
2018-10-07T12:00:16.960Z,20.10
2018-10-07T12:02:45.599Z,20.30
2018-10-07T12:05:14.232Z,20.40
2018-10-07T12:07:43.172Z,20.40
2018-10-07T12:10:11.975Z,20.40
2018-10-07T12:12:40.553Z,20.70
2018-10-07T12:15:09.126Z,21.00
2018-10-07T12:17:37.716Z,21.10
2018-10-07T12:20:06.389Z,20.70
2018-10-07T12:22:34.954Z,20.70
2018-10-07T12:25:03.611Z,20.50
2018-10-07T12:27:32.129Z,20.60
2018-10-07T12:30:00.757Z,20.50
2018-10-07T12:32:29.344Z,20.40
2018-10-07T12:34:57.942Z,20.40
2018-10-07T12:37:26.503Z,20.40
2018-10-07T12:39:55.099Z,20.60
2018-10-07T12:42:23.686Z,20.40
2018-10-07T12:44:52.209Z,20.40
2018-10-07T12:47:20.742Z,20.50
2018-10-07T12:49:49.314Z,20.40
2018-10-07T12:52:17.954Z,20.40
2018-10-07T12:54:46.659Z,20.50
2018-10-07T12:57:15.184Z,20.40
2018-10-07T12:59:43.742Z,20.30
2018-10-07T13:02:12.272Z,20.50
2018-10-07T13:04:40.814Z,20.40
2018-10-07T13:07:09.410Z,20.30
2018-10-07T13:09:37.946Z,20.30
2018-10-07T13:12:06.550Z,20.20
2018-10-07T13:14:35.109Z,20.30
2018-10-07T13:17:03.667Z,20.20
2018-10-07T13:19:32.235Z,20.20
2018-10-07T13:22:00.801Z,20.10
2018-10-07T13:24:29.313Z,20.20
2018-10-07T13:26:57.829Z,20.20
2018-10-07T13:29:26.343Z,20.50
2018-10-07T13:31:54.980Z,20.50
2018-10-07T13:34:23.582Z,20.40
2018-10-07T13:36:52.178Z,20.30
2018-10-07T13:39:20.773Z,20.20
2018-10-07T13:41:49.349Z,20.20
2018-10-07T13:44:17.968Z,20.10
2018-10-07T13:46:46.554Z,20.20
2018-10-07T13:49:15.143Z,20.10
2018-10-07T13:51:43.696Z,20.30
2018-10-07T13:54:14.050Z,20.30
2018-10-07T13:56:42.606Z,20.20
2018-10-07T13:59:11.165Z,20.20
2018-10-07T14:01:39.750Z,20.20
2018-10-07T14:04:08.497Z,20.10
2018-10-07T14:06:37.060Z,20.20
2018-10-07T14:09:09.247Z,20.20
2018-10-07T14:11:38.039Z,20.00
2018-10-07T14:14:06.683Z,20.00
2018-10-07T14:16:35.268Z,20.10
2018-10-07T14:19:03.787Z,20.10
2018-10-07T14:21:32.358Z,19.80
2018-10-07T14:24:00.931Z,19.80
2018-10-07T14:26:29.583Z,19.90
2018-10-07T14:28:58.192Z,19.80
2018-10-07T14:31:26.801Z,19.80
2018-10-07T14:33:55.403Z,19.60
2018-10-07T14:36:23.897Z,19.40
2018-10-07T14:38:52.529Z,19.30
2018-10-07T14:41:21.095Z,19.20
2018-10-07T14:43:49.751Z,18.90
2018-10-07T14:46:18.249Z,18.80
2018-10-07T14:48:47.475Z,18.80
2018-10-07T14:51:16.111Z,18.80
2018-10-07T14:53:44.727Z,18.60
2018-10-07T14:56:13.519Z,18.50
2018-10-07T14:58:42.141Z,18.40
2018-10-07T15:01:10.747Z,18.50
2018-10-07T15:03:39.314Z,18.40
2018-10-07T15:06:07.970Z,18.30
2018-10-07T15:08:36.537Z,18.20
2018-10-07T15:11:05.153Z,18.20
2018-10-07T15:13:33.693Z,18.10
2018-10-07T15:16:02.262Z,18.00
2018-10-07T15:18:30.866Z,17.90
2018-10-07T15:20:59.419Z,17.80
2018-10-07T15:23:27.926Z,17.80
2018-10-07T15:25:56.479Z,17.70
2018-10-07T15:28:25.022Z,17.50
2018-10-07T15:30:53.578Z,17.40
2018-10-07T15:33:22.198Z,17.30
2018-10-07T15:35:50.903Z,17.10
2018-10-07T15:38:19.585Z,17.00
2018-10-07T15:40:48.157Z,16.90
2018-10-07T15:43:16.776Z,16.90
2018-10-07T15:45:45.408Z,16.80
2018-10-07T15:48:14.047Z,16.70
2018-10-07T15:50:42.655Z,16.60
2018-10-07T15:53:11.217Z,16.60
2018-10-07T15:55:39.804Z,16.50
2018-10-07T15:58:08.358Z,16.50
2018-10-07T16:00:36.979Z,16.40
2018-10-07T16:03:05.625Z,16.40
2018-10-07T16:05:34.235Z,16.40
2018-10-07T16:08:02.770Z,16.30
2018-10-07T16:10:31.352Z,16.20
2018-10-07T16:12:59.997Z,16.10
2018-10-07T16:15:28.571Z,16.00
2018-10-07T16:17:57.295Z,16.00
2018-10-07T16:20:25.935Z,15.80
2018-10-07T16:22:54.688Z,15.70
2018-10-07T16:25:23.306Z,15.60
2018-10-07T16:27:52.085Z,15.50
2018-10-07T16:30:20.673Z,15.40
2018-10-07T16:32:49.319Z,15.40
2018-10-07T16:35:17.924Z,15.20
2018-10-07T16:37:46.708Z,15.20
2018-10-07T16:40:15.319Z,15.10
2018-10-07T16:42:43.867Z,15.10
2018-10-07T16:45:13.591Z,15.10
2018-10-07T16:47:42.342Z,15.00
2018-10-07T16:50:10.935Z,14.90
2018-10-07T16:52:39.561Z,14.80
2018-10-07T16:55:08.196Z,14.80
2018-10-07T16:57:36.778Z,14.70
2018-10-07T17:00:09.709Z,14.70
2018-10-07T17:02:38.309Z,14.60
2018-10-07T17:05:06.941Z,14.50
2018-10-07T17:07:35.622Z,14.40
2018-10-07T17:10:04.265Z,14.30
2018-10-07T17:12:32.895Z,14.20
2018-10-07T17:15:01.523Z,14.20
2018-10-07T17:17:30.233Z,14.10
2018-10-07T17:19:58.870Z,14.00
2018-10-07T17:22:27.509Z,13.90
2018-10-07T17:24:56.133Z,13.90
2018-10-07T17:27:24.773Z,13.80
2018-10-07T17:29:53.407Z,13.80
2018-10-07T17:32:22.225Z,13.70
2018-10-07T17:34:50.790Z,13.70
2018-10-07T17:37:19.349Z,13.70
2018-10-07T17:39:47.943Z,13.60
2018-10-07T17:42:16.599Z,13.60
2018-10-07T17:44:45.181Z,13.60
2018-10-07T17:47:13.796Z,13.50
2018-10-07T17:49:42.350Z,13.50
2018-10-07T17:52:10.879Z,13.50
2018-10-07T17:54:39.566Z,13.50
2018-10-07T17:57:08.157Z,13.40
2018-10-07T17:59:36.886Z,13.40
2018-10-07T18:02:11.897Z,13.40
2018-10-07T18:04:40.473Z,13.30
2018-10-07T18:07:09.054Z,13.50
2018-10-07T18:09:37.673Z,13.40
2018-10-07T18:12:06.287Z,13.40
2018-10-07T18:14:34.931Z,13.30
2018-10-07T18:17:03.581Z,13.30
2018-10-07T18:19:32.179Z,13.30
2018-10-07T18:22:00.789Z,13.30
2018-10-07T18:24:29.502Z,13.30
2018-10-07T18:26:58.150Z,13.40
2018-10-07T18:29:26.805Z,13.40
2018-10-07T18:31:55.429Z,13.40
2018-10-07T18:34:24.165Z,13.30
2018-10-07T18:36:52.808Z,13.30
2018-10-07T18:39:21.417Z,13.40
2018-10-07T18:41:50.053Z,13.30
2018-10-07T18:44:18.655Z,13.30
2018-10-07T18:46:47.313Z,13.30
2018-10-07T18:49:15.915Z,13.20
2018-10-07T18:51:44.423Z,13.20
2018-10-07T18:54:15.361Z,13.20
2018-10-07T18:56:43.964Z,13.20
2018-10-07T18:59:12.585Z,13.30
2018-10-07T19:01:41.266Z,13.30
2018-10-07T19:04:09.820Z,13.20
2018-10-07T19:06:38.401Z,13.40
2018-10-07T19:09:14.018Z,13.30
2018-10-07T19:11:42.695Z,13.20
2018-10-07T19:14:11.406Z,13.30
2018-10-07T19:16:39.965Z,13.20
2018-10-07T19:19:08.569Z,13.10
2018-10-07T19:21:37.141Z,13.10
2018-10-07T19:24:05.802Z,13.20
2018-10-07T19:26:34.366Z,13.10
2018-10-07T19:29:02.903Z,13.00
2018-10-07T19:31:31.561Z,13.00
2018-10-07T19:34:00.107Z,13.10
2018-10-07T19:36:28.833Z,13.10
2018-10-07T19:38:57.408Z,13.10
2018-10-07T19:41:25.990Z,13.00
2018-10-07T19:43:54.556Z,12.90
2018-10-07T19:46:23.080Z,12.80
2018-10-07T19:48:52.315Z,12.70
2018-10-07T19:51:20.829Z,12.60
2018-10-07T19:53:49.477Z,12.60
2018-10-07T19:56:17.964Z,12.60
2018-10-07T19:58:46.567Z,12.50
2018-10-07T20:01:15.212Z,12.50
2018-10-07T20:03:43.755Z,12.40
2018-10-07T20:06:12.334Z,12.40
2018-10-07T20:08:41.443Z,12.30
2018-10-07T20:11:10.033Z,12.20
2018-10-07T20:13:38.556Z,12.20
2018-10-07T20:16:07.169Z,12.30
2018-10-07T20:18:35.693Z,12.20
2018-10-07T20:21:04.287Z,12.20
2018-10-07T20:23:32.793Z,12.20
2018-10-07T20:26:01.353Z,12.10
2018-10-07T20:28:29.964Z,12.20
2018-10-07T20:30:58.571Z,12.10
2018-10-07T20:33:27.172Z,12.10
2018-10-07T20:35:55.750Z,12.20
2018-10-07T20:38:24.445Z,12.30
2018-10-07T20:40:53.113Z,12.30
2018-10-07T20:43:21.560Z,12.20
2018-10-07T20:45:50.149Z,12.10
2018-10-07T20:48:18.650Z,12.10
2018-10-07T20:50:47.219Z,12.10
2018-10-07T20:53:15.777Z,12.00
2018-10-07T20:55:44.355Z,11.70
2018-10-07T20:58:12.951Z,11.90
2018-10-07T21:00:41.492Z,11.80
2018-10-07T21:03:10.055Z,11.80
2018-10-07T21:05:38.770Z,11.50
2018-10-07T21:08:07.420Z,11.50
2018-10-07T21:10:36.069Z,11.60
2018-10-07T21:13:04.657Z,11.60
2018-10-07T21:15:33.207Z,11.60
2018-10-07T21:18:01.738Z,11.40
2018-10-07T21:20:30.279Z,11.50
2018-10-07T21:22:58.796Z,11.50
2018-10-07T21:25:27.356Z,11.30
2018-10-07T21:27:55.912Z,11.40
2018-10-07T21:30:24.429Z,11.50
2018-10-07T21:32:52.900Z,11.50
2018-10-07T21:35:21.393Z,11.30
2018-10-07T21:37:49.918Z,11.30
2018-10-07T21:40:18.484Z,11.10
2018-10-07T21:42:47.184Z,10.90
2018-10-07T21:45:15.755Z,10.90
2018-10-07T21:47:44.319Z,11.10
2018-10-07T21:50:12.868Z,11.10
2018-10-07T21:52:41.389Z,11.10
2018-10-07T21:55:09.929Z,10.90
2018-10-07T21:57:38.493Z,11.00
2018-10-07T22:00:12.347Z,11.00
2018-10-07T22:02:40.947Z,10.90
2018-10-07T22:05:09.469Z,10.80
2018-10-07T22:07:38.026Z,10.80
2018-10-07T22:10:06.609Z,10.60
2018-10-07T22:12:35.230Z,10.60
2018-10-07T22:15:03.782Z,10.70
2018-10-07T22:17:32.293Z,10.90
2018-10-07T22:20:00.897Z,10.80
2018-10-07T22:22:29.482Z,10.60
2018-10-07T22:24:58.057Z,10.60
2018-10-07T22:27:26.631Z,10.50
2018-10-07T22:29:55.200Z,10.40
2018-10-07T22:32:23.717Z,10.30
2018-10-07T22:34:52.275Z,10.30
2018-10-07T22:37:20.916Z,10.40
2018-10-07T22:39:49.530Z,10.50
2018-10-07T22:42:18.071Z,10.50
2018-10-07T22:44:46.572Z,10.70
2018-10-07T22:47:15.126Z,10.40
2018-10-07T22:49:43.692Z,10.50
2018-10-07T22:52:12.225Z,10.50
2018-10-07T22:54:40.745Z,10.70
2018-10-07T22:57:09.317Z,10.60
2018-10-07T22:59:37.857Z,10.40
2018-10-07T23:02:06.755Z,10.40
2018-10-07T23:04:35.320Z,10.40
2018-10-07T23:07:03.856Z,10.40
2018-10-07T23:09:32.401Z,10.20
2018-10-07T23:12:00.985Z,10.40
2018-10-07T23:14:29.489Z,10.40
2018-10-07T23:16:58.036Z,10.50
2018-10-07T23:19:26.582Z,10.40
2018-10-07T23:21:55.179Z,10.20
2018-10-07T23:24:23.732Z,10.30
2018-10-07T23:26:52.242Z,10.10
2018-10-07T23:29:20.786Z,10.10
2018-10-07T23:31:49.263Z,10.20
2018-10-07T23:34:17.794Z,10.20
2018-10-07T23:36:46.299Z,10.20
2018-10-07T23:39:14.873Z,10.20
2018-10-07T23:41:43.405Z,10.30
2018-10-07T23:44:11.924Z,10.20
2018-10-07T23:46:40.712Z,10.30
2018-10-07T23:49:09.285Z,10.30
2018-10-07T23:51:37.952Z,10.20
2018-10-07T23:54:12.967Z,10.20
2018-10-07T23:56:41.637Z,10.20
2018-10-07T23:59:10.168Z,10.20
